Time;durP1;ratioP1;P1;durP2;ratioP2;P2;SDS_P1;SDS_P2;PMS_P1;PMS_P2;Temp;Humidity;BMP_temperature;BMP_pressure;BME280_temperature;BME280_humidity;BME280_pressure;Samples;Min_cycle;Max_cycle;Signal;HPM_P1;HPM_P2
2021/08/04 00:01:01;;;;;;;3.37;2.20;;;;;;;;;;5075620;28;20420;-72
2021/08/04 00:03:28;;;;;;;3.03;2.73;;;;;;;;;;5084211;28;20436;-69
2021/08/04 00:05:54;;;;;;;2.30;2.00;;;;;;;;;;5095736;28;20433;-70
2021/08/04 00:08:20;;;;;;;2.80;2.30;;;;;;;;;;5094137;28;20466;-72
2021/08/04 00:10:46;;;;;;;3.03;2.57;;;;;;;;;;5095918;28;20482;-72
2021/08/04 00:13:12;;;;;;;2.50;2.20;;;;;;;;;;5095500;28;20475;-72
2021/08/04 00:15:38;;;;;;;2.20;2.00;;;;;;;;;;5095727;28;20493;-71
2021/08/04 00:18:04;;;;;;;3.00;2.70;;;;;;;;;;5095429;28;20413;-74
2021/08/04 00:20:30;;;;;;;3.07;2.40;;;;;;;;;;5095792;28;20531;-71
2021/08/04 00:22:56;;;;;;;3.20;2.53;;;;;;;;;;5095766;28;20482;-72
2021/08/04 00:25:22;;;;;;;2.50;2.20;;;;;;;;;;5095565;28;20927;-71
2021/08/04 00:27:48;;;;;;;2.77;2.40;;;;;;;;;;5094952;28;20441;-69
2021/08/04 00:30:14;;;;;;;2.63;2.33;;;;;;;;;;5077167;28;20413;-73
2021/08/04 00:32:41;;;;;;;2.93;2.63;;;;;;;;;;5074923;28;20800;-72
2021/08/04 00:35:07;;;;;;;3.80;2.53;;;;;;;;;;5075073;28;20436;-72
2021/08/04 00:37:33;;;;;;;2.90;2.53;;;;;;;;;;5074986;28;20412;-71
2021/08/04 00:39:59;;;;;;;5.67;2.50;;;;;;;;;;5075106;28;20416;-71
2021/08/04 00:42:25;;;;;;;3.50;2.60;;;;;;;;;;5074935;28;20418;-70
2021/08/04 00:44:52;;;;;;;3.03;2.73;;;;;;;;;;5074940;28;20427;-72
2021/08/04 00:47:18;;;;;;;3.07;2.70;;;;;;;;;;5074594;28;20913;-70
2021/08/04 00:49:44;;;;;;;2.83;2.60;;;;;;;;;;5075175;28;20420;-71
2021/08/04 00:52:10;;;;;;;2.90;2.50;;;;;;;;;;5074582;28;20968;-74
2021/08/04 00:54:36;;;;;;;4.00;2.70;;;;;;;;;;5074655;28;20420;-72
2021/08/04 00:57:03;;;;;;;2.73;2.40;;;;;;;;;;5083716;28;20412;-74
2021/08/04 00:59:29;;;;;;;3.70;2.50;;;;;;;;;;5094983;28;20404;-73
2021/08/04 01:02:02;;;;;;;3.67;2.30;;;;;;;;;;5085707;28;20412;-72
2021/08/04 01:04:30;;;;;;;3.23;2.40;;;;;;;;;;5088005;28;20500;-68
2021/08/04 01:07:04;;;;;;;3.30;2.33;;;;;;;;;;5084954;28;20408;-69
2021/08/04 01:09:37;;;;;;;3.03;2.40;;;;;;;;;;5094802;28;20419;-71
2021/08/04 01:12:05;;;;;;;3.03;2.30;;;;;;;;;;5081960;28;20449;-73
2021/08/04 01:14:33;;;;;;;3.10;2.77;;;;;;;;;;5074487;28;20930;-72
2021/08/04 01:16:59;;;;;;;3.33;2.67;;;;;;;;;;5073925;28;20404;-70
2021/08/04 01:19:38;;;;;;;2.90;2.60;;;;;;;;;;5067481;28;20405;-73
2021/08/04 01:22:18;;;;;;;3.17;2.43;;;;;;;;;;5079254;28;20412;-72
2021/08/04 01:25:02;;;;;;;2.90;2.60;;;;;;;;;;5075909;28;20783;-73
2021/08/04 01:27:29;;;;;;;3.43;2.80;;;;;;;;;;5076699;28;20494;-69
2021/08/04 01:29:56;;;;;;;2.80;2.50;;;;;;;;;;5077608;28;20945;-72
2021/08/04 01:32:22;;;;;;;3.37;2.73;;;;;;;;;;5076944;28;20464;-69
2021/08/04 01:34:48;;;;;;;4.50;3.00;;;;;;;;;;5076961;28;20411;-70
2021/08/04 01:37:15;;;;;;;3.27;2.50;;;;;;;;;;5077168;28;20431;-71
2021/08/04 01:39:41;;;;;;;3.10;2.50;;;;;;;;;;5080967;28;20437;-70
2021/08/04 01:42:07;;;;;;;3.67;3.00;;;;;;;;;;5077074;28;20408;-74
2021/08/04 01:44:34;;;;;;;2.80;2.50;;;;;;;;;;5076236;28;20521;-72
2021/08/04 01:47:01;;;;;;;2.67;2.47;;;;;;;;;;5075306;28;20508;-70
2021/08/04 01:49:28;;;;;;;3.83;3.23;;;;;;;;;;5076254;28;20486;-73
2021/08/04 01:51:54;;;;;;;3.33;3.03;;;;;;;;;;5099523;28;20475;-71
2021/08/04 01:54:21;;;;;;;3.97;3.20;;;;;;;;;;5094594;28;20468;-71
2021/08/04 01:56:47;;;;;;;3.13;2.83;;;;;;;;;;5075791;28;20831;-73
2021/08/04 01:59:13;;;;;;;3.43;3.13;;;;;;;;;;5073595;28;20554;-71
2021/08/04 02:01:39;;;;;;;4.07;2.67;;;;;;;;;;5073681;28;20422;-72
2021/08/04 02:04:05;;;;;;;3.17;2.33;;;;;;;;;;5087523;28;20443;-70
2021/08/04 02:06:45;;;;;;;3.80;3.20;;;;;;;;;;5092467;28;20983;-69
2021/08/04 02:09:17;;;;;;;2.90;2.60;;;;;;;;;;5093633;28;20418;-73
2021/08/04 02:12:04;;;;;;;3.53;2.70;;;;;;;;;;5093692;28;20485;-73
2021/08/04 02:14:49;;;;;;;3.10;2.77;;;;;;;;;;5093521;28;20438;-73
2021/08/04 02:17:23;;;;;;;3.70;3.07;;;;;;;;;;5093303;28;20774;-72
2021/08/04 02:20:18;;;;;;;4.17;3.00;;;;;;;;;;5093509;28;20410;-72
2021/08/04 02:22:47;;;;;;;4.93;4.53;;;;;;;;;;5088528;28;20449;-71
2021/08/04 02:25:32;;;;;;;3.13;2.73;;;;;;;;;;5093364;28;20421;-70
2021/08/04 02:27:59;;;;;;;6.00;3.10;;;;;;;;;;5093308;28;20423;-71
2021/08/04 02:30:25;;;;;;;3.40;3.10;;;;;;;;;;5073473;28;20806;-73
2021/08/04 02:32:51;;;;;;;3.23;2.93;;;;;;;;;;5071309;28;20978;-73
2021/08/04 02:35:17;;;;;;;3.23;2.80;;;;;;;;;;5073280;28;20410;-74
2021/08/04 02:37:44;;;;;;;4.67;2.93;;;;;;;;;;5072983;28;20409;-69
2021/08/04 02:40:10;;;;;;;3.53;2.90;;;;;;;;;;5073105;28;20876;-72
2021/08/04 02:42:36;;;;;;;4.10;3.43;;;;;;;;;;5072994;28;20803;-72
2021/08/04 02:45:04;;;;;;;4.03;3.00;;;;;;;;;;5073076;28;20426;-72
2021/08/04 02:47:31;;;;;;;3.80;3.40;;;;;;;;;;5073007;28;20415;-72
2021/08/04 02:49:57;;;;;;;3.40;3.10;;;;;;;;;;5072947;28;20444;-70
2021/08/04 02:52:23;;;;;;;3.53;3.23;;;;;;;;;;5072999;28;20538;-71
2021/08/04 02:54:49;;;;;;;3.97;3.43;;;;;;;;;;5091227;28;20470;-73
2021/08/04 02:57:15;;;;;;;5.93;3.47;;;;;;;;;;5071250;28;20450;-71
2021/08/04 02:59:41;;;;;;;4.23;3.83;;;;;;;;;;5072731;28;20764;-73
2021/08/04 03:02:07;;;;;;;4.40;3.90;;;;;;;;;;5073103;28;20498;-70
2021/08/04 03:04:34;;;;;;;3.90;3.53;;;;;;;;;;5090297;28;20930;-72
2021/08/04 03:06:59;;;;;;;3.77;3.43;;;;;;;;;;5092992;28;20406;-72
2021/08/04 03:09:25;;;;;;;3.67;3.33;;;;;;;;;;5093070;28;20421;-71
2021/08/04 03:11:51;;;;;;;3.80;3.37;;;;;;;;;;5093174;28;20445;-72
2021/08/04 03:14:17;;;;;;;4.10;3.70;;;;;;;;;;5092906;28;20899;-73
2021/08/04 03:16:45;;;;;;;4.43;3.80;;;;;;;;;;5092864;28;20410;-71
2021/08/04 03:19:11;;;;;;;4.23;3.83;;;;;;;;;;5093034;28;20762;-74
2021/08/04 03:21:37;;;;;;;3.47;3.17;;;;;;;;;;5093335;28;20410;-70
2021/08/04 03:24:03;;;;;;;4.00;3.43;;;;;;;;;;5088426;28;20442;-70
2021/08/04 03:26:29;;;;;;;7.50;4.53;;;;;;;;;;5073051;28;20402;-73
2021/08/04 03:28:55;;;;;;;8.63;4.07;;;;;;;;;;5072379;28;20438;-69
2021/08/04 03:31:21;;;;;;;5.80;3.40;;;;;;;;;;5072600;28;20443;-74
2021/08/04 03:33:47;;;;;;;4.63;3.50;;;;;;;;;;5072740;28;20463;-74
2021/08/04 03:36:13;;;;;;;3.53;3.00;;;;;;;;;;5072379;28;20494;-73
2021/08/04 03:38:39;;;;;;;3.40;3.10;;;;;;;;;;5072703;28;20415;-74
2021/08/04 03:41:05;;;;;;;3.20;2.90;;;;;;;;;;5072530;28;20410;-74
2021/08/04 03:43:31;;;;;;;3.80;2.90;;;;;;;;;;5074377;28;20431;-70
2021/08/04 03:45:57;;;;;;;3.60;3.30;;;;;;;;;;5076275;28;20414;-73
2021/08/04 03:48:23;;;;;;;3.97;3.37;;;;;;;;;;5075847;28;20417;-70
2021/08/04 03:50:49;;;;;;;5.77;3.60;;;;;;;;;;5075978;28;20409;-73
2021/08/04 03:53:15;;;;;;;4.43;3.53;;;;;;;;;;5080314;28;20464;-71
2021/08/04 03:55:41;;;;;;;4.40;3.10;;;;;;;;;;5087623;28;20409;-71
2021/08/04 03:58:07;;;;;;;4.07;3.67;;;;;;;;;;5075090;28;20771;-70
2021/08/04 04:00:33;;;;;;;4.63;4.10;;;;;;;;;;5076112;28;20409;-73
2021/08/04 04:02:59;;;;;;;5.30;4.03;;;;;;;;;;5080282;28;20904;-74
2021/08/04 04:05:25;;;;;;;6.67;3.63;;;;;;;;;;5095782;28;20432;-70
2021/08/04 04:07:51;;;;;;;3.70;3.30;;;;;;;;;;5095581;28;20463;-73
2021/08/04 04:10:17;;;;;;;3.87;3.47;;;;;;;;;;5095478;28;20411;-73
2021/08/04 04:12:43;;;;;;;3.93;3.63;;;;;;;;;;5095829;28;20824;-73
2021/08/04 04:15:09;;;;;;;4.20;3.80;;;;;;;;;;5084449;28;20404;-70
2021/08/04 04:17:35;;;;;;;6.70;4.30;;;;;;;;;;5074926;28;20414;-73
2021/08/04 04:20:01;;;;;;;4.33;3.60;;;;;;;;;;5075249;28;20409;-73
2021/08/04 04:22:27;;;;;;;5.53;5.03;;;;;;;;;;5075007;28;20475;-74
2021/08/04 04:24:53;;;;;;;6.13;3.97;;;;;;;;;;5075413;28;20463;-70
2021/08/04 04:27:19;;;;;;;4.23;3.80;;;;;;;;;;5074987;28;20433;-70
2021/08/04 04:29:45;;;;;;;4.33;3.70;;;;;;;;;;5075140;28;20456;-75
2021/08/04 04:32:11;;;;;;;4.13;3.70;;;;;;;;;;5075210;28;20456;-70
2021/08/04 04:34:38;;;;;;;4.37;3.80;;;;;;;;;;5075377;28;20422;-71
2021/08/04 04:37:04;;;;;;;4.87;4.07;;;;;;;;;;5074791;28;20409;-71
2021/08/04 04:39:30;;;;;;;4.50;4.10;;;;;;;;;;5075327;28;20411;-72
2021/08/04 04:41:56;;;;;;;5.77;4.23;;;;;;;;;;5074944;28;20407;-73
2021/08/04 04:44:22;;;;;;;4.80;4.30;;;;;;;;;;5075127;28;20459;-73
2021/08/04 04:46:48;;;;;;;4.10;3.70;;;;;;;;;;5074709;28;20414;-72
2021/08/04 04:49:14;;;;;;;4.13;3.73;;;;;;;;;;5075043;28;20404;-74
2021/08/04 04:51:40;;;;;;;5.00;3.70;;;;;;;;;;5074741;28;20452;-72
2021/08/04 04:54:06;;;;;;;5.23;4.67;;;;;;;;;;5074439;28;20467;-71
2021/08/04 04:56:32;;;;;;;4.60;4.20;;;;;;;;;;5074016;28;20768;-70
2021/08/04 04:58:58;;;;;;;4.60;4.20;;;;;;;;;;5074387;28;20440;-71
2021/08/04 05:01:24;;;;;;;3.83;3.53;;;;;;;;;;5074511;28;20476;-74
2021/08/04 05:03:51;;;;;;;5.40;3.47;;;;;;;;;;5074477;28;20806;-71
2021/08/04 05:06:17;;;;;;;3.70;3.40;;;;;;;;;;5074276;28;20413;-71
2021/08/04 05:08:43;;;;;;;3.70;3.40;;;;;;;;;;5074269;28;20413;-74
2021/08/04 05:11:09;;;;;;;6.03;3.60;;;;;;;;;;5074433;28;20521;-71
2021/08/04 05:13:38;;;;;;;4.37;3.97;;;;;;;;;;5074569;28;20492;-73
2021/08/04 05:16:05;;;;;;;3.93;3.50;;;;;;;;;;5074307;28;20435;-70
2021/08/04 05:18:32;;;;;;;4.10;3.70;;;;;;;;;;5074745;28;20897;-70
2021/08/04 05:20:58;;;;;;;6.50;3.60;;;;;;;;;;5073986;28;20414;-71
2021/08/04 05:23:24;;;;;;;5.07;3.63;;;;;;;;;;5074253;28;20438;-73
2021/08/04 05:25:50;;;;;;;4.57;3.43;;;;;;;;;;5074456;28;20427;-74
2021/08/04 05:28:16;;;;;;;5.20;3.57;;;;;;;;;;5074085;28;20881;-73
2021/08/04 05:30:42;;;;;;;3.90;3.60;;;;;;;;;;5074159;28;20412;-72
2021/08/04 05:33:08;;;;;;;4.20;3.47;;;;;;;;;;5073901;28;20829;-71
2021/08/04 05:35:34;;;;;;;3.77;3.10;;;;;;;;;;5074062;28;20438;-71
2021/08/04 05:38:00;;;;;;;5.10;3.33;;;;;;;;;;5073657;28;20414;-70
2021/08/04 05:40:26;;;;;;;3.20;2.90;;;;;;;;;;5073742;28;20464;-74
2021/08/04 05:42:52;;;;;;;3.80;2.97;;;;;;;;;;5073985;28;20440;-73
2021/08/04 05:45:18;;;;;;;4.80;3.40;;;;;;;;;;5073984;28;20436;-71
2021/08/04 05:47:44;;;;;;;5.77;3.20;;;;;;;;;;5073482;28;20414;-74
2021/08/04 05:50:10;;;;;;;7.03;3.37;;;;;;;;;;5073728;28;20406;-73
2021/08/04 05:52:36;;;;;;;3.63;2.97;;;;;;;;;;5073626;28;20456;-71
2021/08/04 05:55:04;;;;;;;3.50;3.20;;;;;;;;;;5093366;28;20455;-73
2021/08/04 05:57:30;;;;;;;3.07;2.77;;;;;;;;;;5069109;28;20413;-70
2021/08/04 05:59:56;;;;;;;3.70;2.60;;;;;;;;;;5073868;28;20421;-70
2021/08/04 06:02:22;;;;;;;3.40;3.10;;;;;;;;;;5073459;28;20413;-71
2021/08/04 06:04:49;;;;;;;4.33;3.37;;;;;;;;;;5092737;28;20517;-71
2021/08/04 06:07:15;;;;;;;3.40;2.80;;;;;;;;;;5093265;28;20473;-73
2021/08/04 06:09:41;;;;;;;3.30;2.63;;;;;;;;;;5093765;28;20420;-73
2021/08/04 06:12:07;;;;;;;6.57;3.43;;;;;;;;;;5093586;28;20453;-69
2021/08/04 06:14:33;;;;;;;4.50;3.30;;;;;;;;;;5093494;28;20425;-73
2021/08/04 06:16:59;;;;;;;2.93;2.33;;;;;;;;;;5093077;28;20770;-72
2021/08/04 06:19:25;;;;;;;4.03;2.80;;;;;;;;;;5093659;28;20413;-72
2021/08/04 06:21:51;;;;;;;2.90;2.60;;;;;;;;;;5092263;28;20903;-70
2021/08/04 06:24:17;;;;;;;3.13;2.50;;;;;;;;;;5093496;28;20437;-74
2021/08/04 06:26:43;;;;;;;3.80;2.80;;;;;;;;;;5093145;28;20420;-70
2021/08/04 06:29:09;;;;;;;3.27;2.97;;;;;;;;;;5084086;28;20426;-73
2021/08/04 06:31:35;;;;;;;4.57;2.80;;;;;;;;;;5073154;28;20767;-73
2021/08/04 06:34:01;;;;;;;2.90;2.60;;;;;;;;;;5073010;28;20434;-70
2021/08/04 06:36:27;;;;;;;4.40;3.97;;;;;;;;;;5073023;28;20419;-72
2021/08/04 06:38:54;;;;;;;4.87;2.50;;;;;;;;;;5072773;28;20422;-71
2021/08/04 06:41:20;;;;;;;5.57;2.90;;;;;;;;;;5072789;28;20471;-71
2021/08/04 06:43:46;;;;;;;3.63;2.40;;;;;;;;;;5079575;28;20437;-73
2021/08/04 06:46:13;;;;;;;5.03;2.67;;;;;;;;;;5093232;28;20413;-69
2021/08/04 06:48:39;;;;;;;3.83;2.50;;;;;;;;;;5092930;28;20413;-70
2021/08/04 06:51:05;;;;;;;3.60;2.30;;;;;;;;;;5093186;28;20766;-73
2021/08/04 06:53:31;;;;;;;3.40;2.50;;;;;;;;;;5092818;28;20837;-71
2021/08/04 06:55:58;;;;;;;2.50;1.97;;;;;;;;;;5081826;28;20499;-73
2021/08/04 06:58:24;;;;;;;2.90;2.40;;;;;;;;;;5072809;28;20786;-72
2021/08/04 07:00:50;;;;;;;3.23;2.50;;;;;;;;;;5072954;28;20403;-72
2021/08/04 07:03:16;;;;;;;3.63;2.97;;;;;;;;;;5079507;28;20425;-71
2021/08/04 07:05:42;;;;;;;3.10;2.43;;;;;;;;;;5092703;28;20494;-70
2021/08/04 07:08:08;;;;;;;2.50;2.17;;;;;;;;;;5092642;28;20410;-69
2021/08/04 07:10:34;;;;;;;2.80;2.40;;;;;;;;;;5093042;28;20414;-72
2021/08/04 07:13:00;;;;;;;2.80;2.27;;;;;;;;;;5092955;28;20545;-73
2021/08/04 07:15:26;;;;;;;3.87;2.60;;;;;;;;;;5093136;28;20910;-73
2021/08/04 07:17:52;;;;;;;2.90;2.43;;;;;;;;;;5093189;28;20433;-73
2021/08/04 07:20:19;;;;;;;3.93;2.33;;;;;;;;;;5097054;28;20442;-74
2021/08/04 07:22:45;;;;;;;2.33;2.13;;;;;;;;;;5096751;28;20429;-74
2021/08/04 07:25:12;;;;;;;3.73;2.10;;;;;;;;;;5097219;28;20804;-73
2021/08/04 07:27:38;;;;;;;3.40;2.40;;;;;;;;;;5096449;28;20409;-70
2021/08/04 07:30:05;;;;;;;3.83;2.23;;;;;;;;;;5079711;28;20413;-73
2021/08/04 07:32:31;;;;;;;4.33;2.57;;;;;;;;;;5076249;28;20466;-72
2021/08/04 07:35:00;;;;;;;3.90;2.40;;;;;;;;;;5091311;28;20433;-71
2021/08/04 07:37:27;;;;;;;3.37;2.20;;;;;;;;;;5096171;28;20510;-72
2021/08/04 07:39:53;;;;;;;3.10;1.97;;;;;;;;;;5096208;28;20516;-73
2021/08/04 07:42:19;;;;;;;2.87;1.97;;;;;;;;;;5096449;28;20543;-73
2021/08/04 07:44:45;;;;;;;2.60;2.30;;;;;;;;;;5096537;28;20466;-73
2021/08/04 07:47:11;;;;;;;4.00;2.53;;;;;;;;;;5095932;28;20820;-74
2021/08/04 07:49:37;;;;;;;2.77;2.20;;;;;;;;;;5096427;28;20519;-73
2021/08/04 07:52:03;;;;;;;3.10;2.23;;;;;;;;;;5096079;28;20455;-74
2021/08/04 07:54:29;;;;;;;4.87;2.40;;;;;;;;;;5080667;28;20434;-73
2021/08/04 07:56:55;;;;;;;4.00;2.30;;;;;;;;;;5075720;28;20417;-70
2021/08/04 07:59:21;;;;;;;2.70;2.50;;;;;;;;;;5075903;28;20755;-70
2021/08/04 08:01:47;;;;;;;3.50;1.90;;;;;;;;;;5075811;28;20418;-70
2021/08/04 08:04:13;;;;;;;3.87;2.37;;;;;;;;;;5090399;28;20507;-71
2021/08/04 08:06:40;;;;;;;4.10;2.70;;;;;;;;;;5094458;28;20421;-71
2021/08/04 08:09:06;;;;;;;2.90;2.30;;;;;;;;;;5095775;28;20848;-72
2021/08/04 08:11:32;;;;;;;2.80;2.17;;;;;;;;;;5096018;28;20401;-73
2021/08/04 08:13:58;;;;;;;3.20;2.43;;;;;;;;;;5095659;28;20440;-70
2021/08/04 08:16:24;;;;;;;3.40;2.47;;;;;;;;;;5095840;28;20413;-70
2021/08/04 08:18:50;;;;;;;2.90;2.10;;;;;;;;;;5095255;28;20412;-72
2021/08/04 08:21:16;;;;;;;2.93;2.30;;;;;;;;;;5095975;28;20445;-69
2021/08/04 08:23:42;;;;;;;4.37;2.20;;;;;;;;;;5094203;28;20494;-69
2021/08/04 08:26:08;;;;;;;3.13;2.20;;;;;;;;;;5075792;28;20891;-73
2021/08/04 08:28:35;;;;;;;3.10;2.50;;;;;;;;;;5074546;28;20410;-71
2021/08/04 08:31:01;;;;;;;2.40;2.00;;;;;;;;;;5074423;28;20446;-70
2021/08/04 08:33:27;;;;;;;3.27;2.30;;;;;;;;;;5075268;28;20962;-72
2021/08/04 08:35:53;;;;;;;3.13;2.20;;;;;;;;;;5075177;28;20431;-74
2021/08/04 08:38:19;;;;;;;2.80;2.17;;;;;;;;;;5074642;28;20449;-73
2021/08/04 08:40:46;;;;;;;3.80;2.20;;;;;;;;;;5075154;28;20757;-71
2021/08/04 08:43:13;;;;;;;4.30;2.10;;;;;;;;;;5074827;28;20446;-69
2021/08/04 08:45:39;;;;;;;3.13;2.00;;;;;;;;;;5073923;28;20940;-73
2021/08/04 08:48:05;;;;;;;2.60;1.90;;;;;;;;;;5074469;28;20418;-73
2021/08/04 08:50:31;;;;;;;2.40;1.97;;;;;;;;;;5075097;28;20413;-72
2021/08/04 08:52:58;;;;;;;2.40;1.97;;;;;;;;;;5074769;28;20470;-71
2021/08/04 08:55:24;;;;;;;5.30;3.60;;;;;;;;;;5074699;28;20457;-69
2021/08/04 08:57:50;;;;;;;3.43;2.33;;;;;;;;;;5074128;28;20425;-71
2021/08/04 09:00:16;;;;;;;3.33;2.80;;;;;;;;;;5074716;28;20414;-73
2021/08/04 09:02:43;;;;;;;3.67;2.07;;;;;;;;;;5074450;28;20962;-71
2021/08/04 09:05:11;;;;;;;2.57;2.30;;;;;;;;;;5074690;28;20837;-69
2021/08/04 09:07:38;;;;;;;2.50;2.23;;;;;;;;;;5074057;28;20418;-71
2021/08/04 09:10:21;;;;;;;2.57;2.00;;;;;;;;;;5074500;28;20764;-70
2021/08/04 09:12:48;;;;;;;2.77;2.00;;;;;;;;;;5074364;28;20563;-73
2021/08/04 09:15:24;;;;;;;2.60;2.03;;;;;;;;;;5074586;28;20416;-72
2021/08/04 09:17:57;;;;;;;2.57;1.90;;;;;;;;;;5073940;28;20502;-72
2021/08/04 09:20:25;;;;;;;2.80;2.03;;;;;;;;;;5074366;28;20463;-70
2021/08/04 09:22:51;;;;;;;3.63;1.70;;;;;;;;;;5074739;28;20469;-71
2021/08/04 09:25:17;;;;;;;3.20;2.00;;;;;;;;;;5074636;28;20418;-71
2021/08/04 09:27:53;;;;;;;2.70;2.07;;;;;;;;;;5074584;28;20438;-71
2021/08/04 09:30:26;;;;;;;2.70;1.90;;;;;;;;;;5074213;28;20526;-73
2021/08/04 09:32:53;;;;;;;3.70;2.00;;;;;;;;;;5074165;28;20470;-72
2021/08/04 09:35:21;;;;;;;2.80;1.83;;;;;;;;;;5073934;28;20399;-72
2021/08/04 09:37:48;;;;;;;2.87;2.00;;;;;;;;;;5074005;28;20808;-71
2021/08/04 09:40:16;;;;;;;3.53;2.00;;;;;;;;;;5073732;28;20912;-70
2021/08/04 09:42:42;;;;;;;2.40;2.20;;;;;;;;;;5073988;28;20421;-71
2021/08/04 09:45:08;;;;;;;4.10;2.00;;;;;;;;;;5074118;28;20417;-73
2021/08/04 09:47:34;;;;;;;2.47;2.00;;;;;;;;;;5073674;28;20775;-72
2021/08/04 09:50:05;;;;;;;2.40;2.10;;;;;;;;;;5074114;28;20505;-70
2021/08/04 09:52:31;;;;;;;3.50;1.80;;;;;;;;;;5073867;28;20518;-71
2021/08/04 09:55:16;;;;;;;5.93;2.03;;;;;;;;;;5073313;28;20413;-70
2021/08/04 09:57:44;;;;;;;2.40;1.90;;;;;;;;;;5069869;28;20460;-72
2021/08/04 10:00:11;;;;;;;2.63;1.90;;;;;;;;;;5073482;28;20401;-69
2021/08/04 10:02:37;;;;;;;3.37;1.93;;;;;;;;;;5073977;28;20879;-70
2021/08/04 10:05:17;;;;;;;2.50;2.30;;;;;;;;;;5093654;28;20514;-71
2021/08/04 10:08:01;;;;;;;2.40;1.77;;;;;;;;;;5093403;28;20409;-70
2021/08/04 10:10:29;;;;;;;2.67;2.10;;;;;;;;;;5093884;28;20413;-70
2021/08/04 10:12:55;;;;;;;2.93;2.40;;;;;;;;;;5093530;28;20846;-70
2021/08/04 10:15:22;;;;;;;2.43;2.07;;;;;;;;;;5093512;28;20492;-71
2021/08/04 10:17:48;;;;;;;2.70;2.20;;;;;;;;;;5093254;28;20499;-71
2021/08/04 10:20:14;;;;;;;3.60;2.03;;;;;;;;;;5093602;28;20414;-71
2021/08/04 10:22:41;;;;;;;3.00;2.37;;;;;;;;;;5093345;28;20417;-74
2021/08/04 10:25:07;;;;;;;4.10;2.93;;;;;;;;;;5093089;28;20412;-73
2021/08/04 10:27:34;;;;;;;4.67;2.23;;;;;;;;;;5092936;28;20417;-73
2021/08/04 10:30:01;;;;;;;2.60;2.40;;;;;;;;;;5076796;28;20451;-73
2021/08/04 10:32:29;;;;;;;2.73;2.43;;;;;;;;;;5072977;28;20511;-72
2021/08/04 10:34:56;;;;;;;2.80;2.20;;;;;;;;;;5073470;28;20423;-73
2021/08/04 10:37:23;;;;;;;4.97;2.23;;;;;;;;;;5071472;28;20451;-72
2021/08/04 10:39:50;;;;;;;2.70;2.27;;;;;;;;;;5072998;28;20419;-71
2021/08/04 10:42:16;;;;;;;3.23;2.40;;;;;;;;;;5073239;28;20419;-74
2021/08/04 10:44:44;;;;;;;2.70;2.37;;;;;;;;;;5072773;28;20442;-69
2021/08/04 10:47:26;;;;;;;2.70;2.50;;;;;;;;;;5072779;28;20417;-71
2021/08/04 10:50:08;;;;;;;2.50;2.17;;;;;;;;;;5072706;28;20419;-70
2021/08/04 10:52:34;;;;;;;2.50;2.20;;;;;;;;;;5071536;28;20504;-73
2021/08/04 10:55:07;;;;;;;2.80;2.33;;;;;;;;;;5095529;28;20830;-71
2021/08/04 10:57:35;;;;;;;4.23;2.20;;;;;;;;;;5072240;28;20905;-74
2021/08/04 11:00:20;;;;;;;2.37;2.00;;;;;;;;;;5077123;28;20409;-73
2021/08/04 11:02:46;;;;;;;2.60;2.00;;;;;;;;;;5079541;28;20452;-74
2021/08/04 11:05:13;;;;;;;3.00;2.30;;;;;;;;;;5097009;28;20425;-74
2021/08/04 11:07:59;;;;;;;3.17;2.50;;;;;;;;;;5096789;28;20425;-73
2021/08/04 11:10:38;;;;;;;4.63;2.77;;;;;;;;;;5096962;28;20413;-74
2021/08/04 11:13:04;;;;;;;5.17;2.30;;;;;;;;;;5096974;28;20460;-72
2021/08/04 11:15:31;;;;;;;2.70;2.20;;;;;;;;;;5096675;28;20789;-71
2021/08/04 11:18:02;;;;;;;2.60;2.13;;;;;;;;;;5096975;28;20445;-72
2021/08/04 11:20:28;;;;;;;3.30;2.20;;;;;;;;;;5096896;28;20747;-71
2021/08/04 11:22:55;;;;;;;3.23;2.93;;;;;;;;;;5097368;28;20479;-70
2021/08/04 11:25:23;;;;;;;3.33;2.40;;;;;;;;;;5096788;28;20866;-73
2021/08/04 11:27:49;;;;;;;3.17;2.57;;;;;;;;;;5096406;28;20487;-72
2021/08/04 11:30:35;;;;;;;4.23;2.80;;;;;;;;;;5078102;28;20411;-71
2021/08/04 11:33:16;;;;;;;3.80;3.00;;;;;;;;;;5076358;28;20462;-69
2021/08/04 11:35:42;;;;;;;2.60;1.90;;;;;;;;;;5063909;28;20824;-70
2021/08/04 11:38:08;;;;;;;2.50;2.30;;;;;;;;;;5075758;28;20406;-72
2021/08/04 11:40:34;;;;;;;2.77;2.20;;;;;;;;;;5076070;28;20520;-71
2021/08/04 11:43:00;;;;;;;2.80;2.50;;;;;;;;;;5077422;28;20515;-72
2021/08/04 11:45:28;;;;;;;3.03;2.10;;;;;;;;;;5096303;28;20393;-71
2021/08/04 11:47:54;;;;;;;4.50;2.40;;;;;;;;;;5095843;28;20496;-71
2021/08/04 11:50:21;;;;;;;3.33;2.40;;;;;;;;;;5096519;28;20409;-75
2021/08/04 11:52:47;;;;;;;3.00;2.60;;;;;;;;;;5096170;28;20488;-73
2021/08/04 11:55:15;;;;;;;3.90;2.40;;;;;;;;;;5095805;28;20413;-73
2021/08/04 11:57:43;;;;;;;2.80;2.50;;;;;;;;;;5072661;28;20461;-71
2021/08/04 12:00:29;;;;;;;2.93;2.63;;;;;;;;;;5076003;28;20748;-71
2021/08/04 12:02:56;;;;;;;2.50;2.20;;;;;;;;;;5079847;28;20444;-72
2021/08/04 12:05:22;;;;;;;2.60;2.40;;;;;;;;;;5095824;28;20483;-71
2021/08/04 12:07:48;;;;;;;2.87;2.47;;;;;;;;;;5095535;28;20417;-72
2021/08/04 12:10:19;;;;;;;3.40;2.13;;;;;;;;;;5096098;28;20421;-71
2021/08/04 12:12:48;;;;;;;3.87;2.60;;;;;;;;;;5095997;28;20907;-71
2021/08/04 12:15:19;;;;;;;2.53;2.23;;;;;;;;;;5095908;28;20504;-70
2021/08/04 12:17:45;;;;;;;2.47;2.27;;;;;;;;;;5095429;28;20410;-73
2021/08/04 12:20:13;;;;;;;3.07;2.50;;;;;;;;;;5095634;28;20417;-72
2021/08/04 12:22:40;;;;;;;2.97;2.37;;;;;;;;;;5096003;28;20422;-73
2021/08/04 12:25:06;;;;;;;3.00;2.43;;;;;;;;;;5083021;28;20425;-72
2021/08/04 12:27:32;;;;;;;2.40;2.20;;;;;;;;;;5074979;28;20406;-72
2021/08/04 12:30:07;;;;;;;3.80;2.23;;;;;;;;;;5075418;28;20463;-71
2021/08/04 12:32:34;;;;;;;2.50;2.20;;;;;;;;;;5075469;28;20545;-70
2021/08/04 12:35:02;;;;;;;2.90;2.20;;;;;;;;;;5075357;28;20417;-71
2021/08/04 12:37:33;;;;;;;3.27;2.43;;;;;;;;;;5075000;28;20452;-69
2021/08/04 12:40:13;;;;;;;2.30;2.10;;;;;;;;;;5075405;28;20560;-69
2021/08/04 12:42:39;;;;;;;2.60;2.00;;;;;;;;;;5075284;28;20460;-73
2021/08/04 12:45:17;;;;;;;2.50;1.70;;;;;;;;;;5075085;28;20422;-70
2021/08/04 12:47:49;;;;;;;2.40;2.07;;;;;;;;;;5074954;28;20445;-72
2021/08/04 12:50:15;;;;;;;2.20;1.80;;;;;;;;;;5074860;28;20415;-74
2021/08/04 12:52:43;;;;;;;2.50;2.23;;;;;;;;;;5075270;28;20442;-70
2021/08/04 12:55:12;;;;;;;4.33;2.17;;;;;;;;;;5061177;28;20395;-73
2021/08/04 12:57:38;;;;;;;2.20;1.80;;;;;;;;;;5070343;28;20436;-72
2021/08/04 13:00:05;;;;;;;2.40;2.07;;;;;;;;;;5074792;28;20483;-72
2021/08/04 13:02:38;;;;;;;3.73;2.10;;;;;;;;;;5075209;28;20501;-70
2021/08/04 13:05:05;;;;;;;3.17;2.00;;;;;;;;;;5094845;28;20429;-72
2021/08/04 13:07:42;;;;;;;2.30;2.00;;;;;;;;;;5094145;28;20471;-73
2021/08/04 13:10:08;;;;;;;2.20;1.83;;;;;;;;;;5095080;28;20421;-71
2021/08/04 13:12:34;;;;;;;2.50;1.67;;;;;;;;;;5077667;28;20981;-71
2021/08/04 13:15:05;;;;;;;2.37;2.00;;;;;;;;;;5074280;28;20426;-73
2021/08/04 13:17:32;;;;;;;2.27;1.77;;;;;;;;;;5073739;28;20460;-70
2021/08/04 13:20:02;;;;;;;3.17;2.00;;;;;;;;;;5074310;28;20504;-69
2021/08/04 13:22:28;;;;;;;3.03;1.93;;;;;;;;;;5074303;28;20733;-70
2021/08/04 13:25:05;;;;;;;2.77;2.20;;;;;;;;;;5074488;28;20423;-71
2021/08/04 13:27:34;;;;;;;2.80;1.77;;;;;;;;;;5073671;28;20418;-70
2021/08/04 13:30:19;;;;;;;2.40;2.20;;;;;;;;;;5074086;28;20425;-74
2021/08/04 13:32:45;;;;;;;3.20;2.10;;;;;;;;;;5073778;28;20536;-73
2021/08/04 13:35:11;;;;;;;2.47;2.27;;;;;;;;;;5073930;28;20480;-72
2021/08/04 13:37:37;;;;;;;2.63;2.10;;;;;;;;;;5073810;28;20729;-71
2021/08/04 13:40:04;;;;;;;2.40;2.07;;;;;;;;;;5073980;28;20417;-70
2021/08/04 13:42:37;;;;;;;2.13;1.83;;;;;;;;;;5083611;28;20409;-70
2021/08/04 13:45:06;;;;;;;3.07;2.50;;;;;;;;;;5094226;28;20487;-71
2021/08/04 13:47:32;;;;;;;2.30;2.07;;;;;;;;;;5082241;28;20497;-73
2021/08/04 13:50:01;;;;;;;3.23;2.00;;;;;;;;;;5073820;28;20446;-71
2021/08/04 13:52:29;;;;;;;2.20;1.97;;;;;;;;;;5073672;28;20850;-71
2021/08/04 13:54:59;;;;;;;4.50;2.80;;;;;;;;;;5073791;28;20422;-73
2021/08/04 13:57:25;;;;;;;4.03;2.30;;;;;;;;;;5073566;28;20438;-71
2021/08/04 13:59:51;;;;;;;3.00;2.50;;;;;;;;;;5073970;28;20414;-73
2021/08/04 14:02:17;;;;;;;2.80;2.47;;;;;;;;;;5073753;28;20990;-72
2021/08/04 14:04:43;;;;;;;2.40;2.20;;;;;;;;;;5073260;28;20454;-71
2021/08/04 14:07:09;;;;;;;4.03;2.60;;;;;;;;;;5073233;28;20815;-70
2021/08/04 14:09:35;;;;;;;2.93;2.30;;;;;;;;;;5073418;28;20438;-72
2021/08/04 14:12:01;;;;;;;3.50;2.80;;;;;;;;;;5073270;28;20403;-74
2021/08/04 14:14:27;;;;;;;4.10;2.97;;;;;;;;;;5073277;28;20434;-70
2021/08/04 14:16:53;;;;;;;3.57;3.00;;;;;;;;;;5072919;28;20467;-70
2021/08/04 14:19:19;;;;;;;3.73;3.40;;;;;;;;;;5073208;28;20489;-72
2021/08/04 14:21:45;;;;;;;6.00;3.70;;;;;;;;;;5073324;28;20422;-71
2021/08/04 14:24:11;;;;;;;4.73;3.80;;;;;;;;;;5073234;28;20430;-71
2021/08/04 14:26:37;;;;;;;12.47;8.40;;;;;;;;;;5071367;28;20418;-72
2021/08/04 14:29:04;;;;;;;11.43;8.87;;;;;;;;;;5072507;28;20721;-72
2021/08/04 14:31:30;;;;;;;16.50;12.20;;;;;;;;;;5073384;28;20772;-71
2021/08/04 14:33:57;;;;;;;14.13;11.77;;;;;;;;;;5073133;28;20461;-70
2021/08/04 14:36:23;;;;;;;6.03;5.20;;;;;;;;;;5073617;28;20463;-69
2021/08/04 14:38:49;;;;;;;7.93;6.97;;;;;;;;;;5072910;28;20414;-71
2021/08/04 14:41:15;;;;;;;7.13;5.60;;;;;;;;;;5073085;28;20410;-73
2021/08/04 14:43:41;;;;;;;8.70;6.57;;;;;;;;;;5073156;28;20449;-72
2021/08/04 14:46:07;;;;;;;7.00;5.60;;;;;;;;;;5073208;28;20425;-70